John Murtha Johnstown Cambria County Airport Johnstown US
ICAO: KJST
IATA: JST
Category: Medium
Scheduled Services: Yes

Elevation: 2284 ft
TransAlt. 18000 ft.

Airport Communications:
ATIS:118.325
CLEVELAND CNTR:121.2
CTAF:125.75
GND:121.6
KEYSTONE OPS ARNG:36.5
ALTOONA RDO:122.65
TWR:125.75
UNICOM:122.95

KJST Zoom In..

If you have problems with the map follow the link
https://www.worldairports.se/pages/airport.php?
ICAO=KJST

Runways:

(A) RW 05 length 4386 ft width 100 ft
---- / hdg 49

(B) RW 15 length 7003 ft width 150 ft
---- / hdg 154

(C) RW 23 length 4386 ft width 100 ft
---- / hdg 229

(D) RW 33 length 7003 ft width 150 ft
ILS 110.10 / hdg 334

Location; KJST
Day. 16 / Time. 01.10 Zulu
* Altimeter: 30.09
* Temperature: -03° c. -26.6°f.
* Wind from: 270° Speed 09 kn.
Dewpoint: -08° c.
Visibility: 10 Statute Miles.
Clouds: Broken 2400 ft.
Clouds: Broken 12000 ft.

KJST 160110Z AUTO 27009KT 10SM BKN024 BKN120 M03/M08 A3009 RMK AO2 T10331083


Wind From 270°
Speed 09 kn.

 
 
jpsmedia worldairports.se 2019   terms of use